sensor_id;sensor_type;location;lat;lon;timestamp;pressure;altitude;pressure_sealevel;temperature;humidity
13690;BME280;6917;52.194;9.894;2022-10-16T00:00:56;99934.22;;;13.29;100.00
13690;BME280;6917;52.194;9.894;2022-10-16T00:03:21;99943.16;;;13.26;100.00
13690;BME280;6917;52.194;9.894;2022-10-16T00:05:47;99935.94;;;13.21;100.00
13690;BME280;6917;52.194;9.894;2022-10-16T00:08:12;99940.81;;;13.16;100.00
13690;BME280;6917;52.194;9.894;2022-10-16T00:10:38;99943.25;;;13.17;100.00
13690;BME280;6917;52.194;9.894;2022-10-16T00:13:05;99949.09;;;13.28;100.00
13690;BME280;6917;52.194;9.894;2022-10-16T00:15:33;99945.19;;;13.29;100.00
13690;BME280;6917;52.194;9.894;2022-10-16T00:18:01;99941.09;;;13.35;100.00
13690;BME280;6917;52.194;9.894;2022-10-16T00:20:27;99949.66;;;13.21;100.00
13690;BME280;6917;52.194;9.894;2022-10-16T00:22:52;99955.31;;;13.04;100.00
13690;BME280;6917;52.194;9.894;2022-10-16T00:25:17;99951.19;;;12.98;100.00
13690;BME280;6917;52.194;9.894;2022-10-16T00:27:42;99941.47;;;13.00;100.00
13690;BME280;6917;52.194;9.894;2022-10-16T00:30:08;99941.00;;;12.98;100.00
13690;BME280;6917;52.194;9.894;2022-10-16T00:32:33;99942.06;;;13.06;100.00
13690;BME280;6917;52.194;9.894;2022-10-16T00:34:59;99956.66;;;13.19;100.00
13690;BME280;6917;52.194;9.894;2022-10-16T00:37:24;99961.78;;;13.20;100.00
13690;BME280;6917;52.194;9.894;2022-10-16T00:39:50;99969.22;;;13.20;100.00
13690;BME280;6917;52.194;9.894;2022-10-16T00:42:17;99968.28;;;13.28;100.00
13690;BME280;6917;52.194;9.894;2022-10-16T00:47:22;99969.88;;;13.17;100.00
13690;BME280;6917;52.194;9.894;2022-10-16T00:49:51;99968.13;;;13.12;100.00
13690;BME280;6917;52.194;9.894;2022-10-16T00:52:19;99975.97;;;13.22;100.00
13690;BME280;6917;52.194;9.894;2022-10-16T00:54:46;99976.66;;;13.31;100.00
13690;BME280;6917;52.194;9.894;2022-10-16T00:57:12;99977.28;;;13.16;100.00
13690;BME280;6917;52.194;9.894;2022-10-16T00:59:39;99970.94;;;13.24;100.00
13690;BME280;6917;52.194;9.894;2022-10-16T01:02:11;99979.03;;;13.21;100.00
13690;BME280;6917;52.194;9.894;2022-10-16T01:04:39;99979.38;;;13.19;100.00
13690;BME280;6917;52.194;9.894;2022-10-16T01:10:17;99979.75;;;13.42;100.00
13690;BME280;6917;52.194;9.894;2022-10-16T01:12:57;99968.44;;;13.31;100.00
13690;BME280;6917;52.194;9.894;2022-10-16T01:15:55;99972.66;;;13.41;100.00
13690;BME280;6917;52.194;9.894;2022-10-16T01:18:41;99969.72;;;13.46;100.00
13690;BME280;6917;52.194;9.894;2022-10-16T01:21:10;99961.69;;;13.41;100.00
13690;BME280;6917;52.194;9.894;2022-10-16T01:26:33;99971.06;;;13.40;100.00
13690;BME280;6917;52.194;9.894;2022-10-16T01:29:15;99975.19;;;13.46;100.00
13690;BME280;6917;52.194;9.894;2022-10-16T01:31:46;99975.06;;;13.43;100.00
13690;BME280;6917;52.194;9.894;2022-10-16T01:34:15;99974.59;;;13.40;100.00
13690;BME280;6917;52.194;9.894;2022-10-16T01:36:51;99973.69;;;13.36;100.00
13690;BME280;6917;52.194;9.894;2022-10-16T01:39:21;99975.03;;;13.30;100.00
13690;BME280;6917;52.194;9.894;2022-10-16T01:41:50;99972.78;;;13.32;100.00
13690;BME280;6917;52.194;9.894;2022-10-16T01:44:20;99992.31;;;13.43;100.00
13690;BME280;6917;52.194;9.894;2022-10-16T01:46:50;99989.72;;;13.47;100.00
13690;BME280;6917;52.194;9.894;2022-10-16T01:49:17;99991.75;;;13.37;100.00
13690;BME280;6917;52.194;9.894;2022-10-16T01:51:45;99998.84;;;13.38;100.00
13690;BME280;6917;52.194;9.894;2022-10-16T01:54:13;99992.31;;;13.19;100.00
13690;BME280;6917;52.194;9.894;2022-10-16T01:56:39;99997.56;;;13.24;100.00
13690;BME280;6917;52.194;9.894;2022-10-16T01:59:09;99990.97;;;13.16;100.00
13690;BME280;6917;52.194;9.894;2022-10-16T02:01:38;99993.72;;;13.16;100.00
13690;BME280;6917;52.194;9.894;2022-10-16T02:04:12;100000.25;;;13.11;100.00
13690;BME280;6917;52.194;9.894;2022-10-16T02:06:40;100005.00;;;13.23;100.00
13690;BME280;6917;52.194;9.894;2022-10-16T02:09:06;100006.94;;;13.23;100.00
13690;BME280;6917;52.194;9.894;2022-10-16T02:11:31;100010.06;;;13.13;100.00
13690;BME280;6917;52.194;9.894;2022-10-16T02:14:04;100009.94;;;13.09;100.00
13690;BME280;6917;52.194;9.894;2022-10-16T02:16:41;100018.28;;;13.13;100.00
13690;BME280;6917;52.194;9.894;2022-10-16T02:19:07;100022.88;;;13.08;100.00
13690;BME280;6917;52.194;9.894;2022-10-16T02:21:40;100016.13;;;13.06;100.00
13690;BME280;6917;52.194;9.894;2022-10-16T02:24:20;100032.34;;;13.11;100.00
13690;BME280;6917;52.194;9.894;2022-10-16T02:26:52;100026.75;;;13.07;100.00
13690;BME280;6917;52.194;9.894;2022-10-16T02:29:24;100028.34;;;13.08;100.00
13690;BME280;6917;52.194;9.894;2022-10-16T02:31:55;100035.19;;;13.02;100.00
13690;BME280;6917;52.194;9.894;2022-10-16T02:34:24;100035.31;;;13.06;100.00
13690;BME280;6917;52.194;9.894;2022-10-16T02:36:51;100023.97;;;12.95;100.00
13690;BME280;6917;52.194;9.894;2022-10-16T02:39:18;100030.25;;;12.96;100.00
13690;BME280;6917;52.194;9.894;2022-10-16T02:41:45;100030.81;;;12.89;100.00
13690;BME280;6917;52.194;9.894;2022-10-16T02:44:10;100024.72;;;12.84;100.00
13690;BME280;6917;52.194;9.894;2022-10-16T02:46:35;100027.91;;;12.86;100.00
13690;BME280;6917;52.194;9.894;2022-10-16T02:49:01;100019.09;;;12.80;100.00
13690;BME280;6917;52.194;9.894;2022-10-16T02:51:26;100027.22;;;12.76;100.00
13690;BME280;6917;52.194;9.894;2022-10-16T02:53:51;100023.84;;;12.71;100.00
13690;BME280;6917;52.194;9.894;2022-10-16T02:56:17;100025.66;;;12.67;100.00
13690;BME280;6917;52.194;9.894;2022-10-16T02:58:42;100018.81;;;12.61;100.00
13690;BME280;6917;52.194;9.894;2022-10-16T03:01:07;100020.25;;;12.58;100.00
13690;BME280;6917;52.194;9.894;2022-10-16T03:03:33;100019.88;;;12.47;100.00
13690;BME280;6917;52.194;9.894;2022-10-16T03:05:58;100013.78;;;12.42;100.00
13690;BME280;6917;52.194;9.894;2022-10-16T03:08:23;100008.38;;;12.33;100.00
13690;BME280;6917;52.194;9.894;2022-10-16T03:10:51;100001.81;;;12.26;100.00
13690;BME280;6917;52.194;9.894;2022-10-16T03:13:16;100006.22;;;12.18;100.00
13690;BME280;6917;52.194;9.894;2022-10-16T03:15:42;100009.59;;;12.15;100.00
13690;BME280;6917;52.194;9.894;2022-10-16T03:18:07;100001.13;;;12.08;100.00
13690;BME280;6917;52.194;9.894;2022-10-16T03:20:32;99998.13;;;12.01;100.00
13690;BME280;6917;52.194;9.894;2022-10-16T03:22:58;100009.25;;;11.96;100.00
13690;BME280;6917;52.194;9.894;2022-10-16T03:25:23;100002.38;;;11.89;100.00
13690;BME280;6917;52.194;9.894;2022-10-16T03:27:48;100003.34;;;11.85;100.00
13690;BME280;6917;52.194;9.894;2022-10-16T03:30:13;100011.09;;;11.83;100.00
13690;BME280;6917;52.194;9.894;2022-10-16T03:32:39;100014.66;;;11.75;100.00
13690;BME280;6917;52.194;9.894;2022-10-16T03:35:04;100006.00;;;11.73;100.00
13690;BME280;6917;52.194;9.894;2022-10-16T03:37:30;100006.16;;;11.68;100.00
13690;BME280;6917;52.194;9.894;2022-10-16T03:39:55;100002.81;;;11.62;100.00
13690;BME280;6917;52.194;9.894;2022-10-16T03:42:20;100016.03;;;11.60;100.00
13690;BME280;6917;52.194;9.894;2022-10-16T03:44:46;100013.44;;;11.55;100.00
13690;BME280;6917;52.194;9.894;2022-10-16T03:47:11;100014.25;;;11.55;100.00
13690;BME280;6917;52.194;9.894;2022-10-16T03:49:36;100012.31;;;11.56;100.00
13690;BME280;6917;52.194;9.894;2022-10-16T03:52:02;100018.13;;;11.54;100.00
13690;BME280;6917;52.194;9.894;2022-10-16T03:54:27;100009.28;;;11.57;100.00
13690;BME280;6917;52.194;9.894;2022-10-16T03:56:52;100008.44;;;11.57;100.00
13690;BME280;6917;52.194;9.894;2022-10-16T03:59:17;100004.63;;;11.58;100.00
13690;BME280;6917;52.194;9.894;2022-10-16T04:01:43;100005.72;;;11.57;100.00
13690;BME280;6917;52.194;9.894;2022-10-16T04:04:08;100005.06;;;11.60;100.00
13690;BME280;6917;52.194;9.894;2022-10-16T04:06:34;100002.16;;;11.65;100.00
13690;BME280;6917;52.194;9.894;2022-10-16T04:08:59;100002.63;;;11.67;100.00
13690;BME280;6917;52.194;9.894;2022-10-16T04:11:24;99998.13;;;11.62;100.00
13690;BME280;6917;52.194;9.894;2022-10-16T04:13:50;99998.75;;;11.68;100.00
13690;BME280;6917;52.194;9.894;2022-10-16T04:16:15;100007.72;;;11.77;100.00
13690;BME280;6917;52.194;9.894;2022-10-16T04:18:40;100019.16;;;11.79;100.00
13690;BME280;6917;52.194;9.894;2022-10-16T04:21:06;100029.78;;;11.81;100.00
13690;BME280;6917;52.194;9.894;2022-10-16T04:23:32;100025.75;;;11.78;100.00
13690;BME280;6917;52.194;9.894;2022-10-16T04:25:58;100031.22;;;11.78;100.00
13690;BME280;6917;52.194;9.894;2022-10-16T04:28:23;100036.22;;;11.76;100.00
13690;BME280;6917;52.194;9.894;2022-10-16T04:30:48;100037.53;;;11.70;100.00
13690;BME280;6917;52.194;9.894;2022-10-16T04:33:14;100034.00;;;11.70;100.00
13690;BME280;6917;52.194;9.894;2022-10-16T04:35:39;100037.22;;;11.72;100.00
13690;BME280;6917;52.194;9.894;2022-10-16T04:38:04;100034.78;;;11.79;100.00
13690;BME280;6917;52.194;9.894;2022-10-16T04:40:30;100039.78;;;11.77;100.00
13690;BME280;6917;52.194;9.894;2022-10-16T04:42:58;100033.66;;;11.71;100.00
13690;BME280;6917;52.194;9.894;2022-10-16T04:45:24;100021.09;;;11.70;100.00
13690;BME280;6917;52.194;9.894;2022-10-16T04:47:49;100021.59;;;11.72;100.00
13690;BME280;6917;52.194;9.894;2022-10-16T04:50:14;100024.16;;;11.77;100.00
13690;BME280;6917;52.194;9.894;2022-10-16T04:52:40;100021.25;;;11.82;100.00
13690;BME280;6917;52.194;9.894;2022-10-16T04:55:05;100021.38;;;11.86;100.00
13690;BME280;6917;52.194;9.894;2022-10-16T04:57:31;100031.81;;;11.93;100.00
13690;BME280;6917;52.194;9.894;2022-10-16T04:59:58;100035.34;;;12.02;100.00
13690;BME280;6917;52.194;9.894;2022-10-16T05:02:23;100037.91;;;11.98;100.00
13690;BME280;6917;52.194;9.894;2022-10-16T05:04:49;100039.72;;;11.94;100.00
13690;BME280;6917;52.194;9.894;2022-10-16T05:07:14;100043.91;;;11.91;100.00
13690;BME280;6917;52.194;9.894;2022-10-16T05:09:39;100058.63;;;12.08;100.00
13690;BME280;6917;52.194;9.894;2022-10-16T05:12:05;100046.66;;;11.91;100.00
13690;BME280;6917;52.194;9.894;2022-10-16T05:14:30;100033.31;;;11.81;100.00
13690;BME280;6917;52.194;9.894;2022-10-16T05:16:56;100040.38;;;11.91;100.00
13690;BME280;6917;52.194;9.894;2022-10-16T05:19:22;100050.06;;;11.88;100.00
13690;BME280;6917;52.194;9.894;2022-10-16T05:21:47;100043.63;;;11.84;100.00
13690;BME280;6917;52.194;9.894;2022-10-16T05:24:12;100044.25;;;11.90;100.00
13690;BME280;6917;52.194;9.894;2022-10-16T05:26:38;100061.94;;;11.93;100.00
13690;BME280;6917;52.194;9.894;2022-10-16T05:29:03;100059.63;;;12.03;100.00
13690;BME280;6917;52.194;9.894;2022-10-16T05:31:28;100066.47;;;11.88;100.00
13690;BME280;6917;52.194;9.894;2022-10-16T05:34:00;100076.19;;;12.07;100.00
13690;BME280;6917;52.194;9.894;2022-10-16T05:36:26;100072.47;;;12.11;100.00
13690;BME280;6917;52.194;9.894;2022-10-16T05:38:51;100079.88;;;12.11;100.00
13690;BME280;6917;52.194;9.894;2022-10-16T05:41:18;100078.75;;;12.12;100.00
13690;BME280;6917;52.194;9.894;2022-10-16T05:43:48;100092.66;;;12.28;100.00
13690;BME280;6917;52.194;9.894;2022-10-16T05:46:15;100082.50;;;12.28;100.00
13690;BME280;6917;52.194;9.894;2022-10-16T05:48:40;100090.91;;;12.52;100.00
13690;BME280;6917;52.194;9.894;2022-10-16T05:51:08;100097.88;;;12.50;100.00
13690;BME280;6917;52.194;9.894;2022-10-16T05:53:35;100099.09;;;12.61;100.00
13690;BME280;6917;52.194;9.894;2022-10-16T05:56:02;100079.56;;;12.63;100.00
13690;BME280;6917;52.194;9.894;2022-10-16T05:58:32;100097.75;;;12.67;100.00
13690;BME280;6917;52.194;9.894;2022-10-16T06:00:59;100109.16;;;12.69;100.00
13690;BME280;6917;52.194;9.894;2022-10-16T06:03:26;100112.56;;;12.66;100.00
13690;BME280;6917;52.194;9.894;2022-10-16T06:05:51;100124.13;;;12.72;100.00
13690;BME280;6917;52.194;9.894;2022-10-16T06:08:18;100127.84;;;12.76;100.00
13690;BME280;6917;52.194;9.894;2022-10-16T06:10:44;100120.19;;;12.81;100.00
13690;BME280;6917;52.194;9.894;2022-10-16T06:13:11;100119.06;;;12.82;100.00
13690;BME280;6917;52.194;9.894;2022-10-16T06:15:37;100112.03;;;12.94;100.00
13690;BME280;6917;52.194;9.894;2022-10-16T06:18:04;100114.25;;;13.00;100.00
13690;BME280;6917;52.194;9.894;2022-10-16T06:20:30;100111.03;;;12.98;100.00
13690;BME280;6917;52.194;9.894;2022-10-16T06:22:55;100129.63;;;13.14;100.00
13690;BME280;6917;52.194;9.894;2022-10-16T06:25:20;100135.44;;;13.12;100.00
13690;BME280;6917;52.194;9.894;2022-10-16T06:27:46;100147.69;;;13.15;100.00
13690;BME280;6917;52.194;9.894;2022-10-16T06:30:11;100143.53;;;13.08;100.00
13690;BME280;6917;52.194;9.894;2022-10-16T06:32:36;100156.59;;;13.11;100.00
13690;BME280;6917;52.194;9.894;2022-10-16T06:35:01;100148.00;;;13.13;100.00
13690;BME280;6917;52.194;9.894;2022-10-16T06:37:27;100149.47;;;13.19;100.00
13690;BME280;6917;52.194;9.894;2022-10-16T06:39:52;100144.59;;;13.16;100.00
13690;BME280;6917;52.194;9.894;2022-10-16T06:42:18;100143.88;;;13.28;100.00
13690;BME280;6917;52.194;9.894;2022-10-16T06:44:43;100158.06;;;13.30;100.00
13690;BME280;6917;52.194;9.894;2022-10-16T06:47:09;100154.84;;;13.28;100.00
13690;BME280;6917;52.194;9.894;2022-10-16T06:49:34;100169.25;;;13.46;100.00
13690;BME280;6917;52.194;9.894;2022-10-16T06:51:59;100162.75;;;13.50;100.00
13690;BME280;6917;52.194;9.894;2022-10-16T06:54:26;100162.63;;;13.59;100.00
13690;BME280;6917;52.194;9.894;2022-10-16T06:56:51;100172.72;;;13.67;100.00
13690;BME280;6917;52.194;9.894;2022-10-16T06:59:21;100181.53;;;13.73;100.00
13690;BME280;6917;52.194;9.894;2022-10-16T07:01:46;100181.94;;;13.83;100.00
13690;BME280;6917;52.194;9.894;2022-10-16T07:04:12;100189.63;;;13.90;100.00
13690;BME280;6917;52.194;9.894;2022-10-16T07:06:37;100189.84;;;13.97;100.00
13690;BME280;6917;52.194;9.894;2022-10-16T07:09:05;100176.16;;;14.09;100.00
13690;BME280;6917;52.194;9.894;2022-10-16T07:11:31;100177.88;;;14.14;100.00
13690;BME280;6917;52.194;9.894;2022-10-16T07:13:56;100186.22;;;14.17;100.00
13690;BME280;6917;52.194;9.894;2022-10-16T07:16:24;100199.06;;;14.25;100.00
13690;BME280;6917;52.194;9.894;2022-10-16T07:18:50;100212.03;;;14.37;100.00
13690;BME280;6917;52.194;9.894;2022-10-16T07:21:19;100198.38;;;14.41;100.00
13690;BME280;6917;52.194;9.894;2022-10-16T07:23:50;100205.50;;;14.42;100.00
13690;BME280;6917;52.194;9.894;2022-10-16T07:26:15;100196.88;;;14.43;100.00
13690;BME280;6917;52.194;9.894;2022-10-16T07:28:42;100220.06;;;14.54;100.00
13690;BME280;6917;52.194;9.894;2022-10-16T07:31:11;100221.13;;;14.62;100.00
13690;BME280;6917;52.194;9.894;2022-10-16T07:33:37;100216.63;;;14.70;100.00
13690;BME280;6917;52.194;9.894;2022-10-16T07:36:03;100234.84;;;14.74;100.00
13690;BME280;6917;52.194;9.894;2022-10-16T07:38:28;100246.31;;;14.76;100.00
13690;BME280;6917;52.194;9.894;2022-10-16T07:40:58;100241.72;;;14.80;99.63
13690;BME280;6917;52.194;9.894;2022-10-16T07:43:24;100229.47;;;14.78;99.98
13690;BME280;6917;52.194;9.894;2022-10-16T07:45:50;100230.03;;;14.83;99.43
13690;BME280;6917;52.194;9.894;2022-10-16T07:48:16;100242.53;;;14.93;99.24
13690;BME280;6917;52.194;9.894;2022-10-16T07:50:42;100254.31;;;15.06;97.48
13690;BME280;6917;52.194;9.894;2022-10-16T07:53:08;100254.63;;;15.16;96.54
13690;BME280;6917;52.194;9.894;2022-10-16T07:55:33;100252.22;;;15.27;95.67
13690;BME280;6917;52.194;9.894;2022-10-16T07:57:59;100253.00;;;15.28;93.89
13690;BME280;6917;52.194;9.894;2022-10-16T08:00:24;100261.63;;;15.26;93.48
13690;BME280;6917;52.194;9.894;2022-10-16T08:02:49;100257.72;;;15.27;93.79
13690;BME280;6917;52.194;9.894;2022-10-16T08:05:15;100266.66;;;15.24;93.38
13690;BME280;6917;52.194;9.894;2022-10-16T08:07:40;100260.13;;;15.16;94.60
13690;BME280;6917;52.194;9.894;2022-10-16T08:10:06;100265.41;;;15.22;94.39
13690;BME280;6917;52.194;9.894;2022-10-16T08:12:31;100261.53;;;15.23;94.53
13690;BME280;6917;52.194;9.894;2022-10-16T08:14:56;100272.19;;;15.24;94.45
13690;BME280;6917;52.194;9.894;2022-10-16T08:17:22;100284.09;;;15.28;94.83
13690;BME280;6917;52.194;9.894;2022-10-16T08:19:47;100290.28;;;15.25;95.31
13690;BME280;6917;52.194;9.894;2022-10-16T08:22:13;100293.41;;;15.24;95.01
13690;BME280;6917;52.194;9.894;2022-10-16T08:24:39;100298.09;;;15.23;94.54
13690;BME280;6917;52.194;9.894;2022-10-16T08:27:05;100297.84;;;15.28;95.25
13690;BME280;6917;52.194;9.894;2022-10-16T08:29:30;100297.94;;;15.32;94.99
13690;BME280;6917;52.194;9.894;2022-10-16T08:31:56;100309.44;;;15.34;95.38
13690;BME280;6917;52.194;9.894;2022-10-16T08:34:21;100300.69;;;15.32;95.26
13690;BME280;6917;52.194;9.894;2022-10-16T08:36:46;100305.66;;;15.38;95.29
13690;BME280;6917;52.194;9.894;2022-10-16T08:39:12;100307.56;;;15.50;94.26
13690;BME280;6917;52.194;9.894;2022-10-16T08:42:16;100306.75;;;15.62;93.42
13690;BME280;6917;52.194;9.894;2022-10-16T08:45:08;100308.09;;;15.80;93.29
13690;BME280;6917;52.194;9.894;2022-10-16T08:47:49;100305.53;;;15.87;91.91
13690;BME280;6917;52.194;9.894;2022-10-16T08:50:23;100305.38;;;15.96;91.90
13690;BME280;6917;52.194;9.894;2022-10-16T08:52:50;100306.53;;;15.95;90.49
13690;BME280;6917;52.194;9.894;2022-10-16T08:55:31;100308.59;;;15.98;90.75
13690;BME280;6917;52.194;9.894;2022-10-16T08:57:59;100313.41;;;16.01;89.36
13690;BME280;6917;52.194;9.894;2022-10-16T09:00:24;100314.00;;;15.94;89.11
13690;BME280;6917;52.194;9.894;2022-10-16T09:03:14;100320.47;;;15.86;89.22
13690;BME280;6917;52.194;9.894;2022-10-16T09:11:14;100327.25;;;15.76;86.94
13690;BME280;6917;52.194;9.894;2022-10-16T09:13:50;100329.44;;;15.83;86.13
13690;BME280;6917;52.194;9.894;2022-10-16T09:16:32;100339.25;;;15.96;86.02
13690;BME280;6917;52.194;9.894;2022-10-16T09:19:24;100345.41;;;16.05;86.40
13690;BME280;6917;52.194;9.894;2022-10-16T09:21:48;100343.16;;;15.95;85.21
13690;BME280;6917;52.194;9.894;2022-10-16T09:24:19;100342.94;;;15.88;85.41
13690;BME280;6917;52.194;9.894;2022-10-16T09:26:46;100348.44;;;15.88;85.80
13690;BME280;6917;52.194;9.894;2022-10-16T09:29:12;100348.06;;;16.02;86.10
13690;BME280;6917;52.194;9.894;2022-10-16T09:31:38;100344.03;;;16.12;85.17
13690;BME280;6917;52.194;9.894;2022-10-16T09:34:04;100352.59;;;16.22;84.25
13690;BME280;6917;52.194;9.894;2022-10-16T09:36:36;100349.75;;;16.34;85.03
13690;BME280;6917;52.194;9.894;2022-10-16T09:39:09;100349.16;;;16.41;83.64
13690;BME280;6917;52.194;9.894;2022-10-16T09:41:37;100362.59;;;16.43;82.82
13690;BME280;6917;52.194;9.894;2022-10-16T09:44:12;100361.34;;;16.40;81.73
13690;BME280;6917;52.194;9.894;2022-10-16T09:46:41;100365.00;;;16.44;81.44
13690;BME280;6917;52.194;9.894;2022-10-16T09:49:22;100376.47;;;16.46;81.42
13690;BME280;6917;52.194;9.894;2022-10-16T09:51:48;100366.81;;;16.52;80.88
13690;BME280;6917;52.194;9.894;2022-10-16T09:56:41;100373.84;;;16.65;79.89
13690;BME280;6917;52.194;9.894;2022-10-16T09:59:15;100380.94;;;16.79;80.56
13690;BME280;6917;52.194;9.894;2022-10-16T10:01:49;100385.09;;;16.73;78.82
13690;BME280;6917;52.194;9.894;2022-10-16T10:04:16;100382.34;;;16.73;78.20
13690;BME280;6917;52.194;9.894;2022-10-16T10:06:47;100380.94;;;16.79;78.76
13690;BME280;6917;52.194;9.894;2022-10-16T10:11:51;100392.88;;;16.99;77.78
13690;BME280;6917;52.194;9.894;2022-10-16T10:14:20;100384.88;;;16.93;76.57
13690;BME280;6917;52.194;9.894;2022-10-16T10:16:48;100400.34;;;16.98;76.24
13690;BME280;6917;52.194;9.894;2022-10-16T10:19:23;100394.81;;;16.98;76.19
13690;BME280;6917;52.194;9.894;2022-10-16T10:21:51;100396.88;;;17.01;74.77
13690;BME280;6917;52.194;9.894;2022-10-16T10:24:19;100400.00;;;17.15;74.97
13690;BME280;6917;52.194;9.894;2022-10-16T10:26:49;100395.53;;;17.27;74.99
13690;BME280;6917;52.194;9.894;2022-10-16T10:32:26;100393.72;;;17.34;74.00
13690;BME280;6917;52.194;9.894;2022-10-16T10:45:33;100396.91;;;17.68;72.20
13690;BME280;6917;52.194;9.894;2022-10-16T10:51:21;100419.34;;;17.82;70.98
13690;BME280;6917;52.194;9.894;2022-10-16T10:56:51;100417.41;;;17.82;69.91
13690;BME280;6917;52.194;9.894;2022-10-16T11:02:00;100423.13;;;17.58;70.06
13690;BME280;6917;52.194;9.894;2022-10-16T11:07:15;100427.88;;;17.10;71.38
13690;BME280;6917;52.194;9.894;2022-10-16T11:09:51;100421.78;;;17.20;71.18
13690;BME280;6917;52.194;9.894;2022-10-16T11:12:23;100428.13;;;17.37;70.91
13690;BME280;6917;52.194;9.894;2022-10-16T11:15:04;100423.66;;;17.32;69.68
13690;BME280;6917;52.194;9.894;2022-10-16T11:17:39;100426.69;;;17.43;70.72
13690;BME280;6917;52.194;9.894;2022-10-16T11:22:48;100423.41;;;17.69;68.61
13690;BME280;6917;52.194;9.894;2022-10-16T11:25:32;100421.94;;;17.75;68.00
13690;BME280;6917;52.194;9.894;2022-10-16T11:30:29;100429.72;;;17.69;67.14
13690;BME280;6917;52.194;9.894;2022-10-16T11:35:41;100442.84;;;17.92;66.89
13690;BME280;6917;52.194;9.894;2022-10-16T11:38:14;100440.44;;;17.90;66.99
13690;BME280;6917;52.194;9.894;2022-10-16T11:40:43;100444.91;;;17.95;66.78
13690;BME280;6917;52.194;9.894;2022-10-16T11:43:26;100455.03;;;18.06;65.61
13690;BME280;6917;52.194;9.894;2022-10-16T11:45:55;100450.31;;;18.07;65.19
13690;BME280;6917;52.194;9.894;2022-10-16T11:48:52;100451.34;;;18.18;64.30
13690;BME280;6917;52.194;9.894;2022-10-16T11:51:28;100453.09;;;18.26;63.37
13690;BME280;6917;52.194;9.894;2022-10-16T11:54:22;100450.97;;;18.20;62.40
13690;BME280;6917;52.194;9.894;2022-10-16T11:56:53;100465.09;;;18.34;62.89
13690;BME280;6917;52.194;9.894;2022-10-16T11:59:34;100455.63;;;18.35;63.08
13690;BME280;6917;52.194;9.894;2022-10-16T12:02:26;100460.28;;;18.50;62.92
13690;BME280;6917;52.194;9.894;2022-10-16T12:05:06;100471.88;;;18.56;63.15
13690;BME280;6917;52.194;9.894;2022-10-16T12:07:37;100469.56;;;18.58;63.18
13690;BME280;6917;52.194;9.894;2022-10-16T12:10:23;100469.25;;;18.63;62.22
13690;BME280;6917;52.194;9.894;2022-10-16T12:12:49;100471.97;;;18.79;62.01
13690;BME280;6917;52.194;9.894;2022-10-16T12:15:23;100473.94;;;18.78;62.27
13690;BME280;6917;52.194;9.894;2022-10-16T12:17:49;100467.59;;;18.78;62.30
13690;BME280;6917;52.194;9.894;2022-10-16T12:20:21;100470.38;;;18.78;62.49
13690;BME280;6917;52.194;9.894;2022-10-16T12:25:31;100469.00;;;18.68;61.99
13690;BME280;6917;52.194;9.894;2022-10-16T12:30:43;100477.66;;;19.09;61.39
13690;BME280;6917;52.194;9.894;2022-10-16T12:33:28;100483.53;;;19.26;61.77
13690;BME280;6917;52.194;9.894;2022-10-16T12:35:54;100473.56;;;19.22;60.30
13690;BME280;6917;52.194;9.894;2022-10-16T12:38:37;100481.59;;;19.08;60.35
13690;BME280;6917;52.194;9.894;2022-10-16T12:41:05;100485.38;;;18.96;61.08
13690;BME280;6917;52.194;9.894;2022-10-16T12:43:41;100478.91;;;18.69;60.14
13690;BME280;6917;52.194;9.894;2022-10-16T12:48:39;100483.81;;;18.60;61.54
13690;BME280;6917;52.194;9.894;2022-10-16T12:54:02;100494.47;;;18.96;61.61
13690;BME280;6917;52.194;9.894;2022-10-16T12:56:38;100499.38;;;19.07;60.70
13690;BME280;6917;52.194;9.894;2022-10-16T13:04:57;100512.38;;;19.02;58.95
13690;BME280;6917;52.194;9.894;2022-10-16T13:10:26;100521.81;;;19.21;59.43
13690;BME280;6917;52.194;9.894;2022-10-16T13:13:50;100512.91;;;19.31;58.05
13690;BME280;6917;52.194;9.894;2022-10-16T13:27:34;100517.16;;;19.25;58.85
13690;BME280;6917;52.194;9.894;2022-10-16T13:30:22;100523.50;;;19.25;59.17
13690;BME280;6917;52.194;9.894;2022-10-16T13:32:55;100519.63;;;19.30;59.95
13690;BME280;6917;52.194;9.894;2022-10-16T13:35:28;100529.47;;;19.50;60.01
13690;BME280;6917;52.194;9.894;2022-10-16T13:38:24;100523.66;;;19.55;58.59
13690;BME280;6917;52.194;9.894;2022-10-16T13:41:14;100541.19;;;19.63;58.62
13690;BME280;6917;52.194;9.894;2022-10-16T13:43:48;100541.56;;;19.61;58.60
13690;BME280;6917;52.194;9.894;2022-10-16T13:46:18;100542.75;;;19.60;58.66
13690;BME280;6917;52.194;9.894;2022-10-16T13:48:45;100530.91;;;19.64;58.96
13690;BME280;6917;52.194;9.894;2022-10-16T13:51:20;100535.59;;;19.59;58.56
13690;BME280;6917;52.194;9.894;2022-10-16T13:53:46;100537.28;;;19.45;57.46
13690;BME280;6917;52.194;9.894;2022-10-16T13:56:16;100539.13;;;19.37;57.67
13690;BME280;6917;52.194;9.894;2022-10-16T13:58:43;100533.09;;;19.31;58.10
13690;BME280;6917;52.194;9.894;2022-10-16T14:01:29;100536.72;;;19.36;58.77
13690;BME280;6917;52.194;9.894;2022-10-16T14:04:07;100540.66;;;19.35;58.83
13690;BME280;6917;52.194;9.894;2022-10-16T14:06:35;100535.00;;;19.27;58.17
13690;BME280;6917;52.194;9.894;2022-10-16T14:11:33;100542.31;;;19.16;58.69
13690;BME280;6917;52.194;9.894;2022-10-16T14:13:59;100547.06;;;19.16;58.40
13690;BME280;6917;52.194;9.894;2022-10-16T14:16:29;100551.00;;;19.15;58.76
13690;BME280;6917;52.194;9.894;2022-10-16T14:18:58;100556.22;;;19.20;58.95
13690;BME280;6917;52.194;9.894;2022-10-16T14:21:25;100558.34;;;19.26;59.45
13690;BME280;6917;52.194;9.894;2022-10-16T14:23:52;100557.09;;;19.24;59.03
13690;BME280;6917;52.194;9.894;2022-10-16T14:26:21;100556.84;;;19.32;59.91
13690;BME280;6917;52.194;9.894;2022-10-16T14:28:48;100570.13;;;19.43;58.92
13690;BME280;6917;52.194;9.894;2022-10-16T14:33:44;100572.47;;;19.21;58.63